Terminal Aerodrome Forecast
Issued by NWS

Current Version | Previous Version | Text Only | Print | Product List | Glossary Off
Versions: 1 2 3 4 5 6 7 8 9 10 11 12 13 14 15 16

000
FTUS41 KRNK 191113 AAA
TAFLWB
TAF AMD
KLWB 191113Z 1911/2006 00000KT P6SM SCT250
      TEMPO 1911/1913 1SM BR BKN001
     FM191500 26005KT P6SM SKC=

USA.gov is the U.S. government's official web portal to all federal, state and local government web resources and services.